createdAt,value
2022-10-03T00:02:05.678Z,99111.10
2022-10-03T00:05:21.053Z,99113.52
2022-10-03T00:08:44.659Z,99116.09
2022-10-03T00:12:08.654Z,99113.85
2022-10-03T00:15:22.103Z,99115.49
2022-10-03T00:18:49.782Z,99113.93
2022-10-03T00:22:09.141Z,99121.18
2022-10-03T00:25:39.110Z,99121.30
2022-10-03T00:29:19.434Z,99119.63
2022-10-03T00:32:45.947Z,99113.16
2022-10-03T00:35:56.407Z,99110.52
2022-10-03T00:39:02.661Z,99107.02
2022-10-03T00:42:13.697Z,99108.77
2022-10-03T00:45:55.741Z,99106.71
2022-10-03T00:49:48.270Z,99108.48
2022-10-03T00:53:52.151Z,99112.17
2022-10-03T00:57:09.758Z,99110.02
2022-10-03T01:00:17.658Z,99105.61
2022-10-03T01:03:35.190Z,99101.50
2022-10-03T01:06:55.126Z,99103.48
2022-10-03T01:10:18.622Z,99108.48
2022-10-03T01:13:35.711Z,99101.85
2022-10-03T01:17:01.366Z,99095.05
2022-10-03T01:20:23.282Z,99102.08
2022-10-03T01:23:37.390Z,99099.66
2022-10-03T01:26:51.560Z,99097.63
2022-10-03T01:30:23.556Z,99100.31
2022-10-03T01:33:31.771Z,99098.21
2022-10-03T01:37:02.461Z,99092.59
2022-10-03T01:40:20.168Z,99097.34
2022-10-03T01:43:45.180Z,99099.83
2022-10-03T01:46:52.599Z,99100.02
2022-10-03T01:50:00.612Z,99105.17
2022-10-03T01:53:08.498Z,99100.59
2022-10-03T01:56:34.606Z,99098.08
2022-10-03T01:59:48.504Z,99102.02
2022-10-03T02:03:12.853Z,99101.80
2022-10-03T02:06:32.895Z,99106.34
2022-10-03T02:10:01.252Z,99109.48
2022-10-03T02:13:22.073Z,99105.91
2022-10-03T02:16:42.750Z,99105.57
2022-10-03T02:20:24.352Z,99103.33
2022-10-03T02:23:32.143Z,99098.71
2022-10-03T02:26:53.350Z,99098.40
2022-10-03T02:30:11.780Z,99096.75
2022-10-03T02:33:49.088Z,99093.88
2022-10-03T02:37:21.921Z,99100.02
2022-10-03T02:40:33.147Z,99103.65
2022-10-03T02:43:56.783Z,99106.04
2022-10-03T02:47:36.368Z,99096.34
2022-10-03T02:51:15.611Z,99096.31
2022-10-03T02:54:39.460Z,99095.90
2022-10-03T02:58:19.433Z,99093.10
2022-10-03T03:01:42.334Z,99095.94
2022-10-03T03:04:56.854Z,99093.50
2022-10-03T03:08:01.354Z,99092.77
2022-10-03T03:11:39.902Z,99096.48
2022-10-03T03:15:04.024Z,99093.87
2022-10-03T03:18:50.797Z,99091.99
2022-10-03T03:22:11.258Z,99088.29
2022-10-03T03:25:36.695Z,99083.28
2022-10-03T03:29:03.843Z,99082.02
2022-10-03T03:32:14.531Z,99085.65
2022-10-03T03:35:37.815Z,99081.77
2022-10-03T03:38:58.328Z,99079.70
2022-10-03T03:42:19.072Z,99075.94
2022-10-03T03:45:25.777Z,99072.55
2022-10-03T03:49:10.612Z,99074.83
2022-10-03T03:52:31.424Z,99077.65
2022-10-03T03:56:02.712Z,99081.25
2022-10-03T03:59:07.194Z,99073.89
2022-10-03T04:02:18.621Z,99067.21
2022-10-03T04:05:20.431Z,99069.34
2022-10-03T04:08:38.411Z,99069.50
2022-10-03T04:11:54.418Z,99071.98
2022-10-03T04:14:56.163Z,99066.45
2022-10-03T04:18:34.907Z,99061.66
2022-10-03T04:21:57.027Z,99061.31
2022-10-03T04:25:05.624Z,99065.04
2022-10-03T04:28:27.569Z,99065.36
2022-10-03T04:31:49.550Z,99060.01
2022-10-03T04:35:33.008Z,99061.94
2022-10-03T04:38:46.527Z,99061.11
2022-10-03T04:42:00.316Z,99060.93
2022-10-03T04:45:42.999Z,99061.65
2022-10-03T04:49:12.387Z,99064.75
2022-10-03T04:52:33.832Z,99061.09
2022-10-03T04:55:40.707Z,99057.95
2022-10-03T04:59:08.627Z,99058.91
2022-10-03T05:02:28.676Z,99055.84
2022-10-03T05:05:33.756Z,99060.02
2022-10-03T05:08:50.203Z,99056.31
2022-10-03T05:12:30.036Z,99056.94
2022-10-03T05:15:56.926Z,99056.17
2022-10-03T05:19:17.387Z,99062.80
2022-10-03T05:22:24.939Z,99061.04
2022-10-03T05:25:43.825Z,99060.05
2022-10-03T05:29:11.366Z,99056.40
2022-10-03T05:32:28.342Z,99051.96
2022-10-03T05:35:51.521Z,99051.99
2022-10-03T05:39:18.359Z,99053.23
2022-10-03T05:42:51.900Z,99054.00
2022-10-03T05:46:02.737Z,99057.52
2022-10-03T05:49:46.285Z,99055.14
2022-10-03T05:53:02.705Z,99052.34
2022-10-03T05:56:19.743Z,99063.09
2022-10-03T05:59:59.460Z,99068.56
2022-10-03T06:03:38.650Z,99070.54
2022-10-03T06:06:43.648Z,99071.67
2022-10-03T06:10:08.746Z,99076.39
2022-10-03T06:13:19.688Z,99083.13
2022-10-03T06:16:32.714Z,99078.95
2022-10-03T06:19:56.654Z,99078.48
2022-10-03T06:23:36.205Z,99083.21
2022-10-03T06:26:46.785Z,99080.21
2022-10-03T06:30:17.082Z,99085.40
2022-10-03T06:33:57.737Z,99092.89
2022-10-03T06:37:08.625Z,99097.30
2022-10-03T06:40:26.307Z,99095.50
2022-10-03T06:43:34.243Z,99095.94
2022-10-03T06:47:00.639Z,99092.77
2022-10-03T06:50:27.605Z,99093.33
2022-10-03T06:53:45.982Z,99103.81
2022-10-03T06:57:16.156Z,99100.50
2022-10-03T07:00:23.433Z,99108.22
2022-10-03T07:03:46.697Z,99109.73
2022-10-03T07:07:17.818Z,99108.80
2022-10-03T07:10:22.075Z,99109.30
2022-10-03T07:13:53.118Z,99113.70
2022-10-03T07:17:16.912Z,99108.59
2022-10-03T07:20:43.655Z,99113.45
2022-10-03T07:24:26.128Z,99116.11
2022-10-03T07:28:05.856Z,99110.11
2022-10-03T07:31:33.379Z,99113.95
2022-10-03T07:35:14.757Z,99115.23
2022-10-03T07:38:52.426Z,99124.88
2022-10-03T07:42:51.733Z,99127.55
2022-10-03T07:46:05.873Z,99124.77
2022-10-03T07:49:18.799Z,99122.29
2022-10-03T07:52:58.362Z,99118.11
2022-10-03T07:56:32.868Z,99120.82
2022-10-03T07:59:41.198Z,99125.76
2022-10-03T08:03:11.106Z,99126.52
2022-10-03T08:06:39.028Z,99128.89
2022-10-03T08:09:50.766Z,99127.84
2022-10-03T08:13:06.932Z,99131.58
2022-10-03T08:16:08.751Z,99140.86
2022-10-03T08:19:28.827Z,99135.89
2022-10-03T08:22:36.527Z,99136.85
2022-10-03T08:26:14.142Z,99130.29
2022-10-03T08:29:40.723Z,99127.11
2022-10-03T08:33:08.887Z,99125.20
2022-10-03T08:36:49.677Z,99132.19
2022-10-03T08:40:15.818Z,99134.58
2022-10-03T08:43:35.758Z,99134.17
2022-10-03T08:46:55.609Z,99142.05
2022-10-03T08:50:14.240Z,99141.02
2022-10-03T08:53:37.751Z,99148.32
2022-10-03T08:57:10.651Z,99148.10
2022-10-03T09:00:48.075Z,99150.17
2022-10-03T09:03:55.908Z,99155.83
2022-10-03T09:07:19.228Z,99157.52
2022-10-03T09:10:27.649Z,99152.27
2022-10-03T09:13:44.628Z,99151.29
2022-10-03T09:17:02.331Z,99148.54
2022-10-03T09:20:29.414Z,99149.48
2022-10-03T09:23:52.138Z,99154.49
2022-10-03T09:27:15.655Z,99145.89
2022-10-03T09:30:24.864Z,99144.46
2022-10-03T09:34:09.373Z,99146.98
2022-10-03T09:37:39.255Z,99145.35
2022-10-03T09:41:19.094Z,99148.08
2022-10-03T09:44:56.686Z,99146.96
2022-10-03T09:48:29.115Z,99143.42
2022-10-03T09:51:37.314Z,99141.75
2022-10-03T09:55:13.658Z,99143.47
2022-10-03T09:59:07.011Z,99141.77
2022-10-03T10:02:46.985Z,99143.91
2022-10-03T10:06:07.812Z,99144.52
2022-10-03T10:09:36.392Z,99141.22
2022-10-03T10:12:38.379Z,99135.73
2022-10-03T10:16:10.011Z,99137.98
2022-10-03T10:19:23.729Z,99134.23
2022-10-03T10:23:04.680Z,99134.88
2022-10-03T10:26:29.233Z,99134.68
2022-10-03T10:30:04.009Z,99140.45
2022-10-03T10:33:24.855Z,99144.63
2022-10-03T10:37:02.155Z,99146.05
2022-10-03T10:40:22.889Z,99147.71
2022-10-03T10:43:33.943Z,99146.01
2022-10-03T10:47:04.265Z,99147.45
2022-10-03T10:50:24.847Z,99144.96
2022-10-03T10:53:54.778Z,99145.89
2022-10-03T10:57:14.462Z,99146.74
2022-10-03T11:00:22.666Z,99146.86
2022-10-03T11:03:51.826Z,99150.60
2022-10-03T11:07:27.306Z,99154.74
2022-10-03T11:10:44.411Z,99153.52
2022-10-03T11:14:24.991Z,99155.63
2022-10-03T11:17:41.522Z,99160.05
2022-10-03T11:21:08.188Z,99163.01
2022-10-03T11:24:47.870Z,99165.85
2022-10-03T11:28:11.570Z,99172.42
2022-10-03T11:31:44.749Z,99176.30
2022-10-03T11:35:05.705Z,99188.50
2022-10-03T11:38:28.957Z,99185.45
2022-10-03T11:42:02.221Z,99185.60
2022-10-03T11:45:06.416Z,99187.81
2022-10-03T11:48:42.614Z,99184.15
2022-10-03T11:51:53.565Z,99186.86
2022-10-03T11:55:15.376Z,99184.50
2022-10-03T11:58:54.921Z,99184.02
2022-10-03T12:01:56.798Z,99186.19
2022-10-03T12:05:20.936Z,99184.21
2022-10-03T12:08:54.020Z,99190.46
2022-10-03T12:12:02.499Z,99193.31
2022-10-03T12:15:19.637Z,99190.63
2022-10-03T12:18:47.757Z,99192.14
2022-10-03T12:22:08.442Z,99193.19
2022-10-03T12:25:21.450Z,99193.36
2022-10-03T12:28:25.825Z,99196.83
2022-10-03T12:31:49.572Z,99190.42
2022-10-03T12:35:39.538Z,99193.05
2022-10-03T12:39:22.211Z,99198.14
2022-10-03T12:42:48.510Z,99198.57
2022-10-03T12:46:13.644Z,99197.37
2022-10-03T12:49:50.682Z,99202.61
2022-10-03T12:53:16.550Z,99202.21
2022-10-03T12:56:24.131Z,99207.29
2022-10-03T12:59:44.391Z,99205.40
2022-10-03T13:03:11.396Z,99203.67
2022-10-03T13:07:02.439Z,99198.92
2022-10-03T13:10:06.665Z,99193.92
2022-10-03T13:13:30.346Z,99186.90
2022-10-03T13:16:41.489Z,99188.60
2022-10-03T13:20:01.046Z,99189.27
2022-10-03T13:23:21.179Z,99187.46
2022-10-03T13:26:38.292Z,99178.98
2022-10-03T13:30:05.661Z,99172.21
2022-10-03T13:33:22.700Z,99171.55
2022-10-03T13:36:25.647Z,99177.98
2022-10-03T13:39:34.130Z,99185.31
2022-10-03T13:42:39.985Z,99189.94
2022-10-03T13:45:44.855Z,99195.40
2022-10-03T13:49:01.032Z,99204.36
2022-10-03T13:52:29.517Z,99200.89
2022-10-03T13:55:56.361Z,99206.00
2022-10-03T13:59:19.035Z,99211.30
2022-10-03T14:02:40.502Z,99208.09
2022-10-03T14:06:11.048Z,99208.95
2022-10-03T14:09:21.990Z,99212.09
2022-10-03T14:12:55.789Z,99213.55
2022-10-03T14:16:16.848Z,99216.02
2022-10-03T14:19:47.227Z,99220.59
2022-10-03T14:23:22.141Z,99223.05
2022-10-03T14:26:38.496Z,99223.54
2022-10-03T14:29:57.541Z,99219.50
2022-10-03T14:33:11.028Z,99225.66
2022-10-03T14:36:32.993Z,99230.48
2022-10-03T14:39:58.455Z,99230.68
2022-10-03T14:43:36.068Z,99231.37
2022-10-03T14:47:01.440Z,99233.05
2022-10-03T14:50:05.047Z,99238.49
2022-10-03T14:53:24.648Z,99240.64
2022-10-03T14:56:26.916Z,99237.61
2022-10-03T14:59:30.150Z,99236.93
2022-10-03T15:02:36.938Z,99244.05
2022-10-03T15:05:52.289Z,99244.70
2022-10-03T15:08:56.247Z,99244.02
2022-10-03T15:12:09.820Z,99252.63
2022-10-03T15:15:19.959Z,99262.64
2022-10-03T15:18:24.539Z,99256.61
2022-10-03T15:21:27.856Z,99255.73
2022-10-03T15:24:35.477Z,99264.03
2022-10-03T15:27:40.897Z,99266.63
2022-10-03T15:30:43.164Z,99276.63
2022-10-03T15:33:45.969Z,99281.41
2022-10-03T15:36:55.842Z,99290.32
2022-10-03T15:40:01.188Z,99296.27
2022-10-03T15:43:33.647Z,99298.64
2022-10-03T15:46:46.501Z,99302.98
2022-10-03T15:50:04.780Z,99310.38
2022-10-03T15:53:35.515Z,99307.94
2022-10-03T15:56:41.803Z,99307.84
2022-10-03T16:00:03.768Z,99314.37
2022-10-03T16:03:14.590Z,99319.34
2022-10-03T16:06:24.143Z,99313.49
2022-10-03T16:09:48.145Z,99314.50
2022-10-03T16:13:14.144Z,99304.21
2022-10-03T16:16:18.632Z,99302.97
2022-10-03T16:19:40.715Z,99308.33
2022-10-03T16:22:47.069Z,99310.95
2022-10-03T16:25:59.040Z,99311.16
2022-10-03T16:29:19.239Z,99311.92
2022-10-03T16:32:24.907Z,99315.61
2022-10-03T16:36:19.420Z,99325.09
2022-10-03T16:39:33.565Z,99337.96
2022-10-03T16:42:42.478Z,99335.80
2022-10-03T16:45:46.836Z,99341.11
2022-10-03T16:49:15.028Z,99340.75
2022-10-03T16:52:24.139Z,99343.89
2022-10-03T16:55:26.118Z,99351.08
2022-10-03T16:58:30.977Z,99349.44
2022-10-03T17:01:41.048Z,99357.40
2022-10-03T17:04:56.027Z,99363.13
2022-10-03T17:08:23.635Z,99365.29
2022-10-03T17:11:29.078Z,99367.16
2022-10-03T17:14:39.269Z,99374.35
2022-10-03T17:18:03.229Z,99375.23
2022-10-03T17:21:08.436Z,99379.75
2022-10-03T17:24:14.875Z,99378.41
2022-10-03T17:27:19.631Z,99380.29
2022-10-03T17:30:33.683Z,99381.61
2022-10-03T17:33:45.860Z,99382.81
2022-10-03T17:37:05.144Z,99385.03
2022-10-03T17:40:16.818Z,99391.26
2022-10-03T17:43:43.618Z,99391.66
2022-10-03T17:46:58.992Z,99389.88
2022-10-03T17:50:10.297Z,99394.22
2022-10-03T17:53:29.884Z,99389.34
2022-10-03T17:56:34.134Z,99394.30
2022-10-03T17:59:46.006Z,99395.08
2022-10-03T18:03:08.682Z,99400.73
2022-10-03T18:06:29.736Z,99397.45
2022-10-03T18:09:40.844Z,99398.17
2022-10-03T18:12:43.783Z,99396.61
2022-10-03T18:16:04.514Z,99397.33
2022-10-03T18:19:31.127Z,99394.86
2022-10-03T18:22:41.121Z,99400.58
2022-10-03T18:29:53.146Z,99399.36
2022-10-03T18:32:58.750Z,99403.13
2022-10-03T18:36:08.399Z,99406.76
2022-10-03T18:39:21.179Z,99406.45
2022-10-03T18:42:28.454Z,99402.34
2022-10-03T18:45:38.430Z,99410.11
2022-10-03T18:49:22.934Z,99411.39
2022-10-03T18:52:19.844Z,99415.86
2022-10-03T18:55:26.864Z,99420.20
2022-10-03T18:58:33.437Z,99420.32
2022-10-03T19:01:35.426Z,99420.09
2022-10-03T19:04:40.979Z,99425.24
2022-10-03T19:07:51.703Z,99426.92
2022-10-03T19:11:22.191Z,99432.94
2022-10-03T19:14:39.591Z,99433.02
2022-10-03T19:17:59.990Z,99439.38
2022-10-03T19:21:05.041Z,99438.84
2022-10-03T19:24:34.402Z,99445.23
2022-10-03T19:27:51.437Z,99441.08
2022-10-03T19:31:14.602Z,99439.34
2022-10-03T19:34:32.442Z,99445.81
2022-10-03T19:37:45.592Z,99440.92
2022-10-03T19:40:47.750Z,99446.67
2022-10-03T19:43:50.159Z,99448.75
2022-10-03T19:47:15.075Z,99450.63
2022-10-03T19:50:33.887Z,99451.95
2022-10-03T19:53:35.839Z,99451.19
2022-10-03T19:56:37.914Z,99454.77
2022-10-03T19:59:50.503Z,99456.65
2022-10-03T20:03:16.794Z,99461.44
2022-10-03T20:06:26.828Z,99464.73
2022-10-03T20:09:29.814Z,99462.62
2022-10-03T20:12:34.963Z,99460.25
2022-10-03T20:15:44.053Z,99455.23
2022-10-03T20:18:48.988Z,99453.21
2022-10-03T20:21:55.587Z,99450.63
2022-10-03T20:24:58.687Z,99453.54
2022-10-03T20:28:03.096Z,99449.28
2022-10-03T20:31:05.016Z,99455.95
2022-10-03T20:34:12.921Z,99459.37
2022-10-03T20:37:40.548Z,99463.73
2022-10-03T20:40:45.694Z,99463.94
2022-10-03T20:44:15.761Z,99461.71
2022-10-03T20:47:36.318Z,99456.31
2022-10-03T20:50:46.386Z,99454.14
2022-10-03T20:53:53.171Z,99453.23
2022-10-03T20:57:09.534Z,99453.54
2022-10-03T21:00:14.626Z,99449.27
2022-10-03T21:03:28.842Z,99452.11
2022-10-03T21:07:04.253Z,99452.23
2022-10-03T21:10:41.758Z,99453.94
2022-10-03T21:14:03.752Z,99455.58
2022-10-03T21:17:06.788Z,99453.12
2022-10-03T21:20:14.402Z,99459.00
2022-10-03T21:23:23.055Z,99455.77
2022-10-03T21:26:27.854Z,99461.27
2022-10-03T21:29:33.122Z,99462.67
2022-10-03T21:33:00.042Z,99465.79
2022-10-03T21:36:11.090Z,99464.38
2022-10-03T21:39:32.814Z,99459.42
2022-10-03T21:42:54.173Z,99458.11
2022-10-03T21:46:24.361Z,99455.29
2022-10-03T21:49:58.786Z,99450.17
2022-10-03T21:53:17.399Z,99454.00
2022-10-03T21:56:19.171Z,99455.23
2022-10-03T21:59:33.164Z,99455.19
2022-10-03T22:02:42.439Z,99453.90
2022-10-03T22:06:03.436Z,99451.67
2022-10-03T22:09:12.316Z,99457.52
2022-10-03T22:12:14.430Z,99457.16
2022-10-03T22:15:21.343Z,99458.64
2022-10-03T22:18:23.511Z,99460.18
2022-10-03T22:21:27.130Z,99460.34
2022-10-03T22:25:04.085Z,99461.45
2022-10-03T22:28:18.967Z,99460.65
2022-10-03T22:31:35.068Z,99459.41
2022-10-03T22:34:55.655Z,99461.06
2022-10-03T22:37:57.954Z,99461.27
2022-10-03T22:41:02.466Z,99463.02
2022-10-03T22:44:07.434Z,99455.15
2022-10-03T22:47:30.479Z,99454.41
2022-10-03T22:50:34.622Z,99453.70
2022-10-03T22:53:38.779Z,99449.55
2022-10-03T22:56:51.390Z,99449.52
2022-10-03T22:59:59.343Z,99445.64
2022-10-03T23:03:10.116Z,99448.20
2022-10-03T23:07:05.327Z,99451.58
2022-10-03T23:10:26.446Z,99447.74
2022-10-03T23:13:37.672Z,99447.12
2022-10-03T23:16:51.972Z,99443.46
2022-10-03T23:20:12.716Z,99446.58
2022-10-03T23:23:19.689Z,99448.89
2022-10-03T23:26:37.476Z,99448.27
2022-10-03T23:29:39.798Z,99448.52
2022-10-03T23:32:47.708Z,99447.32
2022-10-03T23:35:50.735Z,99446.00
2022-10-03T23:38:54.895Z,99445.70
2022-10-03T23:41:59.208Z,99449.09
2022-10-03T23:45:12.341Z,99444.04
2022-10-03T23:48:19.073Z,99440.25
2022-10-03T23:51:25.693Z,99444.39
2022-10-03T23:54:28.297Z,99442.99
2022-10-03T23:57:42.432Z,99443.71
